createdAt,value
2023-09-10T00:00:38.321Z,21.15
2023-09-10T00:03:06.620Z,20.67
2023-09-10T00:05:34.725Z,19.40
2023-09-10T00:08:02.546Z,18.77
2023-09-10T00:10:35.436Z,19.77
2023-09-10T00:13:04.898Z,20.27
2023-09-10T00:15:32.251Z,19.92
2023-09-10T00:17:59.364Z,18.75
2023-09-10T00:20:28.333Z,18.75
2023-09-10T00:22:57.775Z,19.10
2023-09-10T00:25:25.363Z,18.25
2023-09-10T00:27:52.695Z,21.05
2023-09-10T00:30:21.062Z,21.98
2023-09-10T00:32:49.062Z,21.35
2023-09-10T00:35:17.815Z,21.88
2023-09-10T00:37:45.331Z,21.88
2023-09-10T00:40:13.820Z,20.33
2023-09-10T00:42:40.899Z,20.35
2023-09-10T00:45:10.470Z,19.20
2023-09-10T00:47:42.587Z,19.92
2023-09-10T00:50:11.060Z,19.48
2023-09-10T00:52:45.001Z,18.80
2023-09-10T00:55:13.551Z,19.17
2023-09-10T00:57:41.451Z,18.45
2023-09-10T01:00:10.440Z,19.90
2023-09-10T01:02:39.568Z,20.02
2023-09-10T01:05:06.861Z,20.80
2023-09-10T01:07:35.598Z,20.48
2023-09-10T01:10:02.737Z,22.58
2023-09-10T01:12:45.339Z,21.77
2023-09-10T01:15:20.990Z,21.35
2023-09-10T01:18:05.334Z,21.20
2023-09-10T01:20:56.581Z,21.05
2023-09-10T01:23:48.268Z,22.38
2023-09-10T01:26:15.930Z,20.85
2023-09-10T01:28:43.574Z,20.98
2023-09-10T01:31:11.246Z,20.92
2023-09-10T01:33:45.073Z,20.40
2023-09-10T01:36:39.567Z,19.75
2023-09-10T01:39:14.146Z,21.15
2023-09-10T01:41:42.342Z,21.13
2023-09-10T01:44:10.265Z,20.67
2023-09-10T01:46:38.419Z,22.05
2023-09-10T01:49:06.059Z,21.85
2023-09-10T01:51:33.133Z,21.75
2023-09-10T01:54:01.189Z,23.05
2023-09-10T01:56:31.049Z,22.23
2023-09-10T01:59:00.120Z,22.25
2023-09-10T02:01:27.325Z,21.33
2023-09-10T02:03:54.490Z,21.20
2023-09-10T02:06:21.539Z,22.38
2023-09-10T02:08:48.515Z,19.88
2023-09-10T02:11:15.760Z,19.55
2023-09-10T02:13:43.100Z,19.45
2023-09-10T02:16:10.568Z,19.00
2023-09-10T02:18:39.872Z,19.70
2023-09-10T02:21:12.994Z,19.20
2023-09-10T02:23:47.660Z,20.23
2023-09-10T02:26:17.137Z,20.20
2023-09-10T02:28:44.489Z,20.98
2023-09-10T02:31:11.887Z,20.10
2023-09-10T02:33:38.858Z,20.88
2023-09-10T02:36:06.824Z,21.95
2023-09-10T02:38:34.014Z,21.83
2023-09-10T02:41:01.834Z,20.40
2023-09-10T02:43:31.221Z,20.55
2023-09-10T02:46:00.084Z,20.98
2023-09-10T02:48:28.074Z,20.88
2023-09-10T02:50:55.551Z,21.63
2023-09-10T02:53:22.716Z,22.15
2023-09-10T02:56:00.206Z,21.75
2023-09-10T02:58:27.458Z,22.25
2023-09-10T03:00:54.537Z,23.45
2023-09-10T03:03:25.048Z,22.42
2023-09-10T03:05:52.740Z,22.38
2023-09-10T03:08:20.559Z,22.30
2023-09-10T03:10:48.292Z,23.05
2023-09-10T03:13:16.082Z,25.30
2023-09-10T03:15:47.216Z,24.60
2023-09-10T03:18:14.233Z,24.90
2023-09-10T03:20:41.380Z,25.15
2023-09-10T03:23:08.496Z,25.45
2023-09-10T03:25:40.701Z,24.67
2023-09-10T03:28:08.008Z,25.30
2023-09-10T03:30:35.171Z,25.20
2023-09-10T03:33:06.756Z,25.20
2023-09-10T03:35:35.534Z,25.33
2023-09-10T03:38:03.639Z,24.50
2023-09-10T03:40:30.755Z,25.45
2023-09-10T03:42:57.805Z,24.73
2023-09-10T03:45:24.905Z,24.83
2023-09-10T03:47:52.250Z,25.00
2023-09-10T03:50:19.586Z,24.52
2023-09-10T03:52:47.030Z,26.02
2023-09-10T03:55:14.984Z,24.90
2023-09-10T03:57:42.294Z,24.85
2023-09-10T04:00:10.740Z,25.70
2023-09-10T04:02:41.000Z,25.25
2023-09-10T04:05:11.435Z,25.48
2023-09-10T04:07:39.324Z,25.55
2023-09-10T04:10:10.016Z,24.58
2023-09-10T04:12:38.293Z,24.13
2023-09-10T04:15:06.325Z,25.67
2023-09-10T04:17:34.897Z,25.33
2023-09-10T04:20:09.613Z,24.23
2023-09-10T04:22:37.767Z,25.02
2023-09-10T04:25:05.412Z,24.25
2023-09-10T04:27:35.428Z,24.65
2023-09-10T04:30:03.988Z,24.27
2023-09-10T04:32:31.955Z,24.55
2023-09-10T04:34:59.285Z,25.00
2023-09-10T04:37:27.849Z,24.75
2023-09-10T04:39:55.734Z,24.13
2023-09-10T04:42:24.745Z,24.20
2023-09-10T04:44:52.801Z,24.73
2023-09-10T04:47:20.502Z,24.90
2023-09-10T04:49:47.598Z,26.23
2023-09-10T04:52:17.201Z,25.25
2023-09-10T04:54:44.296Z,26.27
2023-09-10T04:57:12.188Z,26.52
2023-09-10T04:59:39.719Z,26.42
2023-09-10T05:02:07.624Z,27.05
2023-09-10T05:04:35.542Z,27.85
2023-09-10T05:07:03.635Z,27.13
2023-09-10T05:09:34.238Z,27.15
2023-09-10T05:12:01.597Z,25.88
2023-09-10T05:14:28.701Z,25.67
2023-09-10T05:16:55.887Z,27.38
2023-09-10T05:19:27.284Z,27.85
2023-09-10T05:21:54.361Z,25.65
2023-09-10T05:24:23.247Z,26.13
2023-09-10T05:26:51.518Z,26.90
2023-09-10T05:29:18.955Z,25.67
2023-09-10T05:31:46.291Z,25.83
2023-09-10T05:34:14.668Z,26.27
2023-09-10T05:36:41.752Z,26.25
2023-09-10T05:39:08.693Z,24.90
2023-09-10T05:41:37.027Z,24.23
2023-09-10T05:44:05.235Z,22.70
2023-09-10T05:46:32.642Z,22.38
2023-09-10T05:49:04.719Z,22.83
2023-09-10T05:51:38.371Z,22.38
2023-09-10T05:54:08.064Z,21.25
2023-09-10T05:56:42.629Z,21.52
2023-09-10T05:59:10.068Z,20.45
2023-09-10T06:01:37.393Z,20.60
2023-09-10T06:04:04.807Z,21.20
2023-09-10T06:06:31.972Z,19.50
2023-09-10T06:08:59.018Z,19.00
2023-09-10T06:11:28.535Z,18.33
2023-09-10T06:13:56.350Z,17.40
2023-09-10T06:16:25.457Z,17.88
2023-09-10T06:18:54.542Z,18.08
2023-09-10T06:21:22.081Z,16.92
2023-09-10T06:23:49.226Z,17.33
2023-09-10T06:26:16.210Z,15.88
2023-09-10T06:28:43.545Z,16.63
2023-09-10T06:31:10.730Z,15.45
2023-09-10T06:33:38.018Z,16.25
2023-09-10T06:36:05.341Z,15.73
2023-09-10T06:38:32.538Z,15.70
2023-09-10T06:40:59.782Z,15.73
2023-09-10T06:43:27.113Z,14.93
2023-09-10T06:45:55.117Z,15.63
2023-09-10T06:48:22.470Z,13.82
2023-09-10T06:50:49.624Z,14.07
2023-09-10T06:53:16.802Z,14.50
2023-09-10T06:55:47.944Z,13.90
2023-09-10T06:58:18.555Z,15.65
2023-09-10T07:00:46.455Z,14.30
2023-09-10T07:03:14.629Z,14.00
2023-09-10T07:05:43.573Z,13.55
2023-09-10T07:08:14.594Z,13.52
2023-09-10T07:10:41.732Z,13.52
2023-09-10T07:13:09.064Z,12.75
2023-09-10T07:15:37.058Z,12.93
2023-09-10T07:18:05.515Z,12.45
2023-09-10T07:20:32.714Z,14.18
2023-09-10T07:23:00.185Z,13.63
2023-09-10T07:25:29.836Z,13.18
2023-09-10T07:27:57.179Z,11.68
2023-09-10T07:30:24.436Z,11.38
2023-09-10T07:32:51.529Z,12.10
2023-09-10T07:35:18.677Z,11.52
2023-09-10T07:37:45.957Z,11.38
2023-09-10T07:40:15.235Z,11.63
2023-09-10T07:42:43.574Z,11.23
2023-09-10T07:45:15.874Z,11.15
2023-09-10T07:47:43.785Z,11.27
2023-09-10T07:50:11.228Z,10.95
2023-09-10T07:52:38.515Z,10.90
2023-09-10T07:55:05.927Z,10.80
2023-09-10T07:57:32.916Z,10.57
2023-09-10T07:59:59.904Z,9.65
2023-09-10T08:02:29.355Z,9.30
2023-09-10T08:04:56.529Z,8.88
2023-09-10T08:07:24.778Z,9.25
2023-09-10T08:09:52.187Z,9.35
2023-09-10T08:12:19.277Z,9.15
2023-09-10T08:14:46.377Z,8.65
2023-09-10T08:17:13.819Z,8.75
2023-09-10T08:19:40.981Z,8.18
2023-09-10T08:22:10.456Z,9.35
2023-09-10T08:24:40.716Z,8.32
2023-09-10T08:27:14.384Z,8.02
2023-09-10T08:29:42.754Z,8.15
2023-09-10T08:32:11.250Z,7.88
2023-09-10T08:34:38.478Z,8.60
2023-09-10T08:37:10.929Z,8.25
2023-09-10T08:39:38.652Z,8.63
2023-09-10T08:42:32.177Z,8.25
2023-09-10T08:45:05.452Z,7.53
2023-09-10T08:47:40.812Z,7.82
2023-09-10T08:50:13.223Z,8.90
2023-09-10T08:52:49.994Z,7.85
2023-09-10T08:55:17.210Z,8.38
2023-09-10T08:57:47.006Z,7.25
2023-09-10T09:00:14.547Z,7.28
2023-09-10T09:02:43.590Z,7.65
2023-09-10T09:05:12.002Z,7.15
2023-09-10T09:07:53.345Z,7.38
2023-09-10T09:10:27.915Z,7.88
2023-09-10T09:13:01.869Z,7.10
2023-09-10T09:15:33.310Z,7.00
2023-09-10T09:18:04.293Z,7.65
2023-09-10T09:20:33.172Z,7.00
2023-09-10T09:23:34.188Z,7.40
2023-09-10T09:26:03.462Z,6.90
2023-09-10T09:28:33.090Z,7.10
2023-09-10T09:31:01.609Z,7.18
2023-09-10T09:33:28.916Z,7.03
2023-09-10T09:36:06.004Z,6.93
2023-09-10T09:38:33.129Z,7.00
2023-09-10T09:41:05.277Z,6.65
2023-09-10T09:43:36.278Z,6.57
2023-09-10T09:46:04.390Z,5.90
2023-09-10T09:48:33.942Z,6.40
2023-09-10T09:51:01.300Z,6.28
2023-09-10T09:53:31.773Z,6.63
2023-09-10T09:56:00.772Z,5.97
2023-09-10T09:58:31.286Z,6.15
2023-09-10T10:00:59.368Z,6.63
2023-09-10T10:03:26.781Z,5.72
2023-09-10T10:05:57.209Z,5.85
2023-09-10T10:08:32.842Z,5.68
2023-09-10T10:11:00.417Z,5.88
2023-09-10T10:13:28.666Z,6.40
2023-09-10T10:15:59.309Z,5.10
2023-09-10T10:18:31.741Z,4.95
2023-09-10T10:20:59.941Z,5.25
2023-09-10T10:23:28.256Z,5.70
2023-09-10T10:26:01.282Z,5.38
2023-09-10T10:28:30.175Z,5.35
2023-09-10T10:31:17.738Z,5.03
2023-09-10T10:34:01.569Z,5.38
2023-09-10T10:36:47.621Z,5.30
2023-09-10T10:39:18.496Z,5.18
2023-09-10T10:41:51.748Z,4.97
2023-09-10T10:44:36.263Z,4.80
2023-09-10T10:47:24.253Z,5.50
2023-09-10T10:49:54.177Z,4.90
2023-09-10T10:52:32.214Z,4.78
2023-09-10T10:55:00.437Z,5.35
2023-09-10T10:57:30.117Z,4.80
2023-09-10T10:59:59.308Z,4.55
2023-09-10T11:02:26.931Z,4.63
2023-09-10T11:05:09.557Z,5.75
2023-09-10T11:07:39.464Z,5.22
2023-09-10T11:10:41.554Z,4.45
2023-09-10T11:13:11.008Z,5.07
2023-09-10T11:16:07.467Z,4.55
2023-09-10T11:18:37.491Z,5.03
2023-09-10T11:21:19.423Z,4.95
2023-09-10T11:23:52.536Z,4.30
2023-09-10T11:26:19.896Z,4.75
2023-09-10T11:28:52.729Z,4.88
2023-09-10T11:31:36.292Z,4.90
2023-09-10T11:34:32.639Z,5.57
2023-09-10T11:37:07.979Z,4.72
2023-09-10T11:39:36.762Z,5.03
2023-09-10T11:42:09.301Z,4.88
2023-09-10T11:44:37.108Z,4.90
2023-09-10T11:47:08.547Z,4.88
2023-09-10T11:49:37.363Z,5.32
2023-09-10T11:52:05.001Z,5.03
2023-09-10T11:54:32.694Z,4.88
2023-09-10T11:57:00.092Z,4.97
2023-09-10T11:59:31.508Z,4.78
2023-09-10T12:02:01.113Z,5.53
2023-09-10T12:04:32.998Z,5.38
2023-09-10T12:07:03.991Z,5.93
2023-09-10T12:09:32.046Z,4.97
2023-09-10T12:12:10.527Z,5.90
2023-09-10T12:14:38.847Z,5.38
2023-09-10T12:17:07.266Z,5.13
2023-09-10T12:19:37.387Z,5.35
2023-09-10T12:22:11.639Z,4.85
2023-09-10T12:24:40.161Z,5.15
2023-09-10T12:27:07.432Z,5.20
2023-09-10T12:29:35.047Z,5.40
2023-09-10T12:32:04.409Z,5.38
2023-09-10T12:34:31.615Z,5.15
2023-09-10T12:37:01.145Z,5.15
2023-09-10T12:39:29.067Z,5.10
2023-09-10T12:42:03.665Z,4.93
2023-09-10T12:44:32.739Z,5.32
2023-09-10T12:47:00.580Z,4.85
2023-09-10T12:49:28.383Z,5.20
2023-09-10T12:51:55.528Z,5.63
2023-09-10T12:54:22.605Z,5.38
2023-09-10T12:56:52.435Z,5.43
2023-09-10T12:59:23.079Z,5.15
2023-09-10T13:01:51.375Z,5.10
2023-09-10T13:04:21.206Z,5.30
2023-09-10T13:06:48.400Z,4.85
2023-09-10T13:09:16.331Z,5.50
2023-09-10T13:11:43.481Z,4.80
2023-09-10T13:14:10.616Z,4.80
2023-09-10T13:16:37.792Z,5.60
2023-09-10T13:19:04.982Z,5.13
2023-09-10T13:21:32.379Z,5.43
2023-09-10T13:23:59.589Z,5.03
2023-09-10T13:26:27.537Z,5.10
2023-09-10T13:28:55.417Z,4.60
2023-09-10T13:31:22.673Z,4.53
2023-09-10T13:33:49.848Z,4.65
2023-09-10T13:36:16.995Z,4.78
2023-09-10T13:38:44.231Z,5.03
2023-09-10T13:41:11.424Z,4.10
2023-09-10T13:43:39.291Z,4.82
2023-09-10T13:46:06.687Z,4.05
2023-09-10T13:48:34.193Z,4.22
2023-09-10T13:51:05.378Z,4.60
2023-09-10T13:53:32.767Z,4.30
2023-09-10T13:56:00.005Z,4.43
2023-09-10T13:58:27.084Z,4.43
2023-09-10T14:00:54.170Z,3.90
2023-09-10T14:03:27.493Z,4.30
2023-09-10T14:05:57.941Z,3.92
2023-09-10T14:08:25.843Z,3.78
2023-09-10T14:10:55.719Z,4.75
2023-09-10T14:13:24.308Z,3.60
2023-09-10T14:15:51.817Z,3.90
2023-09-10T14:18:19.086Z,4.00
2023-09-10T14:20:46.315Z,3.70
2023-09-10T14:23:13.455Z,4.40
2023-09-10T14:25:40.572Z,3.97
2023-09-10T14:28:08.090Z,3.92
2023-09-10T14:30:37.379Z,3.80
2023-09-10T14:33:06.722Z,4.18
2023-09-10T14:35:36.355Z,4.28
2023-09-10T14:38:10.469Z,3.90
2023-09-10T14:40:37.847Z,3.55
2023-09-10T14:43:08.023Z,7.47
2023-09-10T14:45:37.821Z,4.90
2023-09-10T14:48:05.420Z,5.45
2023-09-10T14:50:33.328Z,8.10
2023-09-10T14:53:00.452Z,6.13
2023-09-10T14:55:28.217Z,6.95
2023-09-10T14:57:56.625Z,6.40
2023-09-10T15:00:24.466Z,4.07
2023-09-10T15:02:51.870Z,4.57
2023-09-10T15:05:19.240Z,3.72
2023-09-10T15:07:46.524Z,3.40
2023-09-10T15:10:14.149Z,4.47
2023-09-10T15:12:41.237Z,3.42
2023-09-10T15:15:09.206Z,3.88
2023-09-10T15:17:36.840Z,4.20
2023-09-10T15:20:05.177Z,4.30
2023-09-10T15:22:32.340Z,3.75
2023-09-10T15:25:01.942Z,3.72
2023-09-10T15:27:29.405Z,5.60
2023-09-10T15:29:57.314Z,3.55
2023-09-10T15:32:24.713Z,4.25
2023-09-10T15:34:51.818Z,3.78
2023-09-10T15:37:21.948Z,3.42
2023-09-10T15:39:49.034Z,3.58
2023-09-10T15:42:18.444Z,3.65
2023-09-10T15:44:45.839Z,4.03
2023-09-10T15:47:16.233Z,8.93
2023-09-10T15:49:43.320Z,4.88
2023-09-10T15:52:10.376Z,4.50
2023-09-10T15:54:37.470Z,3.97
2023-09-10T15:57:05.952Z,4.18
2023-09-10T15:59:33.215Z,5.28
2023-09-10T16:02:32.978Z,5.40
2023-09-10T16:05:00.458Z,9.98
2023-09-10T16:07:27.371Z,5.15
2023-09-10T16:09:55.387Z,4.90
2023-09-10T16:12:22.991Z,3.95
2023-09-10T16:14:50.137Z,4.60
2023-09-10T16:17:17.502Z,4.57
2023-09-10T16:19:44.698Z,4.45
2023-09-10T16:22:11.807Z,4.03
2023-09-10T16:24:40.231Z,3.50
2023-09-10T16:27:08.405Z,3.92
2023-09-10T16:29:35.696Z,4.53
2023-09-10T16:32:03.898Z,4.07
2023-09-10T16:34:31.904Z,4.18
2023-09-10T16:36:59.351Z,3.83
2023-09-10T16:39:26.340Z,3.90
2023-09-10T16:41:53.339Z,4.10
2023-09-10T16:44:24.505Z,3.85
2023-09-10T16:46:51.598Z,3.85
2023-09-10T16:49:18.834Z,4.40
2023-09-10T16:51:46.295Z,3.95
2023-09-10T16:54:13.743Z,4.28
2023-09-10T16:56:41.014Z,4.45
2023-09-10T16:59:09.058Z,4.32
2023-09-10T17:01:36.352Z,3.90
2023-09-10T17:04:03.527Z,3.92
2023-09-10T17:06:30.613Z,3.90
2023-09-10T17:08:57.724Z,4.15
2023-09-10T17:11:26.205Z,4.20
2023-09-10T17:13:54.221Z,4.25
2023-09-10T17:16:22.142Z,4.28
2023-09-10T17:18:49.487Z,4.45
2023-09-10T17:21:17.081Z,4.15
2023-09-10T17:23:44.305Z,4.05
2023-09-10T17:26:12.156Z,4.15
2023-09-10T17:28:39.207Z,3.58
2023-09-10T17:31:06.863Z,4.00
2023-09-10T17:33:34.577Z,4.75
2023-09-10T17:36:02.666Z,4.55
2023-09-10T17:38:33.313Z,4.35
2023-09-10T17:41:00.633Z,4.60
2023-09-10T17:43:27.894Z,4.20
2023-09-10T17:45:55.213Z,4.60
2023-09-10T17:48:22.570Z,4.65
2023-09-10T17:50:50.143Z,4.75
2023-09-10T17:53:17.498Z,4.80
2023-09-10T17:55:45.899Z,5.00
2023-09-10T17:58:13.744Z,6.18
2023-09-10T18:00:41.108Z,5.90
2023-09-10T18:03:08.474Z,6.03
2023-09-10T18:05:35.904Z,5.57
2023-09-10T18:08:05.835Z,5.53
2023-09-10T18:10:32.983Z,5.30
2023-09-10T18:13:00.080Z,5.30
2023-09-10T18:15:27.334Z,5.53
2023-09-10T18:17:54.751Z,6.60
2023-09-10T18:20:23.278Z,7.38
2023-09-10T18:22:50.365Z,7.45
2023-09-10T18:25:17.572Z,7.75
2023-09-10T18:27:44.799Z,11.63
2023-09-10T18:30:13.662Z,10.85
2023-09-10T18:32:41.450Z,25.00
2023-09-10T18:35:09.188Z,20.65
2023-09-10T18:37:37.302Z,11.50
2023-09-10T18:40:06.405Z,7.75
2023-09-10T18:42:33.648Z,6.95
2023-09-10T18:45:00.747Z,6.60
2023-09-10T18:47:27.937Z,5.93
2023-09-10T18:49:55.253Z,6.38
2023-09-10T18:52:22.244Z,7.07
2023-09-10T18:54:51.242Z,5.85
2023-09-10T18:57:18.610Z,6.70
2023-09-10T18:59:46.095Z,5.93
2023-09-10T19:02:13.642Z,5.68
2023-09-10T19:04:41.718Z,6.10
2023-09-10T19:07:11.312Z,6.20
2023-09-10T19:09:38.698Z,6.40
2023-09-10T19:12:06.214Z,6.32
2023-09-10T19:14:33.223Z,6.93
2023-09-10T19:17:00.605Z,6.45
2023-09-10T19:19:29.038Z,5.90
2023-09-10T19:21:57.118Z,6.07
2023-09-10T19:24:24.812Z,5.90
2023-09-10T19:26:52.059Z,6.32
2023-09-10T19:29:19.093Z,6.40
2023-09-10T19:31:46.111Z,7.97
2023-09-10T19:34:13.258Z,7.30
2023-09-10T19:36:40.354Z,6.88
2023-09-10T19:39:10.990Z,6.90
2023-09-10T19:41:39.561Z,6.47
2023-09-10T19:44:09.615Z,6.38
2023-09-10T19:46:38.069Z,6.40
2023-09-10T19:49:05.516Z,6.55
2023-09-10T19:51:32.750Z,6.70
2023-09-10T19:53:59.825Z,6.88
2023-09-10T19:56:28.536Z,6.40
2023-09-10T19:59:06.608Z,6.50
2023-09-10T20:01:39.959Z,7.57
2023-09-10T20:04:07.259Z,6.35
2023-09-10T20:06:37.744Z,7.10
2023-09-10T20:09:05.917Z,6.63
2023-09-10T20:11:33.796Z,6.82
2023-09-10T20:14:01.705Z,5.88
2023-09-10T20:16:29.740Z,6.80
2023-09-10T20:18:57.020Z,7.38
2023-09-10T20:21:24.427Z,8.15
2023-09-10T20:23:51.669Z,8.88
2023-09-10T20:26:18.977Z,9.20
2023-09-10T20:28:46.485Z,8.77
2023-09-10T20:31:14.112Z,8.65
2023-09-10T20:33:42.691Z,8.55
2023-09-10T20:36:10.450Z,8.48
2023-09-10T20:38:38.400Z,7.90
2023-09-10T20:41:12.354Z,8.02
2023-09-10T20:43:40.489Z,8.25
2023-09-10T20:46:08.136Z,7.78
2023-09-10T20:48:35.696Z,8.02
2023-09-10T20:51:08.044Z,7.70
2023-09-10T20:53:36.748Z,7.40
2023-09-10T20:56:04.959Z,8.32
2023-09-10T20:58:32.333Z,8.32
2023-09-10T21:01:00.273Z,7.85
2023-09-10T21:03:30.543Z,8.43
2023-09-10T21:05:59.282Z,7.55
2023-09-10T21:08:27.374Z,7.47
2023-09-10T21:10:54.863Z,7.85
2023-09-10T21:13:22.001Z,7.70
2023-09-10T21:15:49.324Z,7.53
2023-09-10T21:18:18.856Z,7.70
2023-09-10T21:20:49.901Z,8.13
2023-09-10T21:23:19.017Z,8.00
2023-09-10T21:25:46.254Z,8.32
2023-09-10T21:28:13.644Z,8.52
2023-09-10T21:30:40.841Z,8.02
2023-09-10T21:33:08.060Z,8.20
2023-09-10T21:35:35.445Z,8.18
2023-09-10T21:38:02.824Z,7.80
2023-09-10T21:40:30.763Z,8.45
2023-09-10T21:42:58.909Z,8.50
2023-09-10T21:45:27.326Z,8.57
2023-09-10T21:47:54.779Z,9.13
2023-09-10T21:50:22.027Z,9.18
2023-09-10T21:52:49.129Z,7.97
2023-09-10T21:55:16.296Z,8.27
2023-09-10T21:57:43.496Z,8.35
2023-09-10T22:00:13.765Z,8.75
2023-09-10T22:02:45.227Z,8.43
2023-09-10T22:05:13.185Z,8.38
2023-09-10T22:07:42.054Z,9.10
2023-09-10T22:10:09.793Z,9.50
2023-09-10T22:12:36.944Z,8.90
2023-09-10T22:15:06.392Z,8.02
2023-09-10T22:17:33.759Z,9.30
2023-09-10T22:20:00.852Z,9.25
2023-09-10T22:22:28.114Z,8.88
2023-09-10T22:24:58.888Z,8.80
2023-09-10T22:27:26.608Z,8.70
2023-09-10T22:29:54.080Z,9.02
2023-09-10T22:32:21.576Z,8.90
2023-09-10T22:34:48.802Z,8.75
2023-09-10T22:37:16.680Z,9.68
2023-09-10T22:39:45.922Z,9.02
2023-09-10T22:42:12.913Z,8.00
2023-09-10T22:44:40.074Z,8.45
2023-09-10T22:47:08.133Z,8.88
2023-09-10T22:49:36.870Z,9.30
2023-09-10T22:52:05.207Z,9.18
2023-09-10T22:54:32.781Z,8.95
2023-09-10T22:57:00.519Z,9.23
2023-09-10T22:59:29.161Z,8.80
2023-09-10T23:01:56.356Z,8.57
2023-09-10T23:04:24.654Z,8.55
2023-09-10T23:06:52.096Z,8.95
2023-09-10T23:09:19.649Z,9.40
2023-09-10T23:11:47.771Z,9.32
2023-09-10T23:14:17.118Z,9.98
2023-09-10T23:16:44.402Z,9.75
2023-09-10T23:19:14.694Z,9.88
2023-09-10T23:21:45.435Z,9.73
2023-09-10T23:24:12.687Z,10.65
2023-09-10T23:26:41.652Z,9.75
2023-09-10T23:29:08.822Z,9.73
2023-09-10T23:31:36.200Z,11.13
2023-09-10T23:34:08.097Z,11.50
2023-09-10T23:36:40.373Z,10.98
2023-09-10T23:39:09.283Z,10.50
2023-09-10T23:41:36.733Z,10.32
2023-09-10T23:44:04.110Z,10.18
2023-09-10T23:46:32.679Z,10.75
2023-09-10T23:49:01.620Z,10.35
2023-09-10T23:51:28.628Z,9.88
2023-09-10T23:53:55.873Z,10.50
2023-09-10T23:56:23.619Z,10.18
2023-09-10T23:58:52.731Z,10.07
